Time;durP1;ratioP1;P1;durP2;ratioP2;P2;SDS_P1;SDS_P2;PMS_P1;PMS_P2;Temp;Humidity;BMP_temperature;BMP_pressure;BME280_temperature;BME280_humidity;BME280_pressure;Samples;Min_cycle;Max_cycle;Signal;HPM_P1;HPM_P2
2023/11/19 00:00:44;;;;;;;17.77;3.72;;;;;;;;;;5028630;28;20491;-70
2023/11/19 00:03:12;;;;;;;12.32;4.03;;;;;;;;;;5015210;28;20060;-69
2023/11/19 00:05:38;;;;;;;13.55;3.10;;;;;;;;;;5035227;28;20037;-69
2023/11/19 00:08:07;;;;;;;14.48;4.15;;;;;;;;;;5031806;28;20028;-70
2023/11/19 00:10:33;;;;;;;15.25;3.28;;;;;;;;;;5047723;28;20033;-69
2023/11/19 00:12:59;;;;;;;8.38;3.13;;;;;;;;;;5039360;28;20028;-68
2023/11/19 00:15:26;;;;;;;14.07;3.70;;;;;;;;;;5031667;28;20468;-70
2023/11/19 00:17:52;;;;;;;12.90;4.13;;;;;;;;;;5037569;28;20116;-69
2023/11/19 00:20:19;;;;;;;14.88;3.35;;;;;;;;;;5029643;28;20254;-69
2023/11/19 00:22:51;;;;;;;10.77;2.63;;;;;;;;;;5033974;28;20029;-69
2023/11/19 00:25:18;;;;;;;10.80;3.38;;;;;;;;;;5032033;28;20032;-70
2023/11/19 00:27:47;;;;;;;7.93;3.05;;;;;;;;;;5035916;28;20099;-68
2023/11/19 00:30:13;;;;;;;10.65;3.65;;;;;;;;;;5031532;28;20033;-68
2023/11/19 00:32:40;;;;;;;11.60;3.50;;;;;;;;;;5034842;28;20025;-68
2023/11/19 00:35:10;;;;;;;7.95;3.00;;;;;;;;;;5028587;28;20487;-69
2023/11/19 00:37:39;;;;;;;8.80;3.47;;;;;;;;;;5033151;28;20024;-68
2023/11/19 00:40:06;;;;;;;10.07;3.30;;;;;;;;;;5021397;28;20036;-70
2023/11/19 00:42:32;;;;;;;10.98;3.17;;;;;;;;;;5039073;28;20610;-69
2023/11/19 00:44:58;;;;;;;9.27;2.65;;;;;;;;;;5028119;28;21801;-71
2023/11/19 00:47:25;;;;;;;8.35;3.50;;;;;;;;;;5039462;28;20107;-69
2023/11/19 00:49:51;;;;;;;15.85;4.50;;;;;;;;;;5032121;28;20029;-70
2023/11/19 00:52:18;;;;;;;12.48;3.38;;;;;;;;;;5035530;28;20347;-69
2023/11/19 00:54:44;;;;;;;15.43;3.20;;;;;;;;;;5036184;28;20067;-70
2023/11/19 00:57:10;;;;;;;13.05;3.40;;;;;;;;;;5038606;28;20033;-70
2023/11/19 00:59:37;;;;;;;8.70;4.30;;;;;;;;;;5042983;28;20057;-68
2023/11/19 01:02:05;;;;;;;15.45;3.38;;;;;;;;;;5019290;28;20029;-69
2023/11/19 01:04:35;;;;;;;11.57;3.50;;;;;;;;;;5036923;28;20041;-69
2023/11/19 01:07:03;;;;;;;14.98;3.33;;;;;;;;;;5036162;28;20051;-69
2023/11/19 01:09:32;;;;;;;8.13;3.05;;;;;;;;;;5023156;28;20116;-69
2023/11/19 01:12:00;;;;;;;17.92;3.78;;;;;;;;;;5038057;28;20048;-69
2023/11/19 01:14:26;;;;;;;12.95;3.97;;;;;;;;;;5017326;28;20072;-69
2023/11/19 01:16:54;;;;;;;16.23;3.55;;;;;;;;;;5041752;28;20450;-68
2023/11/19 01:19:22;;;;;;;12.55;2.55;;;;;;;;;;5013583;28;20029;-69
2023/11/19 01:21:51;;;;;;;18.85;3.15;;;;;;;;;;5016475;28;20025;-69
2023/11/19 01:24:18;;;;;;;13.93;3.63;;;;;;;;;;5033063;28;20052;-70
2023/11/19 01:26:49;;;;;;;13.10;3.38;;;;;;;;;;5033859;28;20398;-71
2023/11/19 01:29:20;;;;;;;9.68;3.33;;;;;;;;;;5032656;28;20037;-70
2023/11/19 01:31:47;;;;;;;11.05;2.47;;;;;;;;;;5040144;28;20040;-68
2023/11/19 01:34:13;;;;;;;10.93;2.78;;;;;;;;;;5039946;28;20503;-74
2023/11/19 01:36:39;;;;;;;13.55;3.10;;;;;;;;;;5020157;28;20029;-69
2023/11/19 01:39:06;;;;;;;10.10;2.90;;;;;;;;;;5033886;28;20052;-69
2023/11/19 01:41:41;;;;;;;9.65;2.78;;;;;;;;;;5042473;28;20055;-69
2023/11/19 01:44:07;;;;;;;;;;;;;;;;;;5031367;28;20036;-70
2023/11/19 01:46:33;;;;;;;9.13;2.97;;;;;;;;;;5032870;28;19913;-69
2023/11/19 01:49:00;;;;;;;8.90;2.80;;;;;;;;;;5032680;28;20056;-68
2023/11/19 01:51:27;;;;;;;8.15;2.22;;;;;;;;;;5022080;28;20039;-69
2023/11/19 01:53:54;;;;;;;8.55;3.08;;;;;;;;;;5041671;28;20029;-69
2023/11/19 01:56:21;;;;;;;6.18;2.30;;;;;;;;;;5016314;28;20033;-69
2023/11/19 01:58:49;;;;;;;7.40;3.03;;;;;;;;;;5034816;28;20028;-75
2023/11/19 02:01:15;;;;;;;8.43;2.70;;;;;;;;;;5034629;28;20458;-69
2023/11/19 02:03:41;;;;;;;10.07;2.85;;;;;;;;;;5044415;28;20364;-70
2023/11/19 02:06:10;;;;;;;11.07;2.95;;;;;;;;;;5040340;28;20041;-70
2023/11/19 02:08:45;;;;;;;6.43;2.40;;;;;;;;;;5037810;28;20399;-70
2023/11/19 02:11:12;;;;;;;9.65;2.90;;;;;;;;;;5045483;28;20114;-70
2023/11/19 02:13:41;;;;;;;8.20;2.45;;;;;;;;;;5028788;28;20056;-68
2023/11/19 02:16:09;;;;;;;9.52;3.70;;;;;;;;;;5033493;28;20044;-70
2023/11/19 02:18:35;;;;;;;12.75;3.83;;;;;;;;;;5048451;28;20032;-70
2023/11/19 02:21:02;;;;;;;9.85;4.13;;;;;;;;;;5045377;28;20043;-70
2023/11/19 02:23:29;;;;;;;11.50;3.25;;;;;;;;;;5048099;28;20082;-69
2023/11/19 02:26:14;;;;;;;11.90;3.25;;;;;;;;;;5044694;28;20918;-70
2023/11/19 02:28:42;;;;;;;6.57;2.50;;;;;;;;;;5046424;28;20032;-69
2023/11/19 02:31:09;;;;;;;5.93;2.15;;;;;;;;;;5027744;28;20903;-70
2023/11/19 02:33:36;;;;;;;14.05;3.65;;;;;;;;;;5050715;28;20484;-70
2023/11/19 02:36:04;;;;;;;10.30;2.97;;;;;;;;;;5047925;28;20323;-70
2023/11/19 02:38:30;;;;;;;8.20;2.67;;;;;;;;;;5021432;28;20038;-70
2023/11/19 02:40:58;;;;;;;6.55;2.45;;;;;;;;;;5053380;28;20048;-69
2023/11/19 02:43:24;;;;;;;10.93;2.75;;;;;;;;;;5049469;28;20665;-70
2023/11/19 02:45:51;;;;;;;12.27;3.10;;;;;;;;;;5031910;28;20059;-69
2023/11/19 02:48:17;;;;;;;11.10;2.85;;;;;;;;;;5045014;28;20565;-69
2023/11/19 02:50:43;;;;;;;12.80;2.75;;;;;;;;;;5048156;28;20482;-69
2023/11/19 02:53:10;;;;;;;9.20;2.65;;;;;;;;;;5043763;28;20036;-69
2023/11/19 02:55:39;;;;;;;9.18;2.80;;;;;;;;;;5051100;28;20029;-70
2023/11/19 02:58:19;;;;;;;11.27;3.17;;;;;;;;;;5050411;28;20081;-69
2023/11/19 03:00:52;;;;;;;7.53;2.40;;;;;;;;;;5049914;28;20055;-68
2023/11/19 03:03:20;;;;;;;11.50;2.65;;;;;;;;;;5047179;28;20048;-69
2023/11/19 03:05:48;;;;;;;10.45;2.80;;;;;;;;;;5052353;28;20071;-68
2023/11/19 03:08:15;;;;;;;6.75;2.67;;;;;;;;;;5044119;28;20049;-69
2023/11/19 03:10:42;;;;;;;7.95;2.33;;;;;;;;;;5043936;28;20028;-71
2023/11/19 03:13:13;;;;;;;15.75;4.05;;;;;;;;;;5049122;28;20039;-70
2023/11/19 03:15:40;;;;;;;10.20;3.22;;;;;;;;;;5043792;28;20378;-70
2023/11/19 03:18:07;;;;;;;6.95;2.70;;;;;;;;;;5051452;28;20021;-70
2023/11/19 03:20:33;;;;;;;14.05;3.53;;;;;;;;;;5030928;28;20364;-69
2023/11/19 03:23:01;;;;;;;10.75;3.15;;;;;;;;;;5027624;28;21119;-70
2023/11/19 03:25:33;;;;;;;8.57;3.35;;;;;;;;;;5047326;28;20017;-70
2023/11/19 03:28:01;;;;;;;8.38;2.38;;;;;;;;;;5031463;28;20032;-70
2023/11/19 03:30:28;;;;;;;7.90;2.72;;;;;;;;;;5049498;28;20026;-70
2023/11/19 03:32:54;;;;;;;9.13;2.55;;;;;;;;;;5045544;28;20029;-69
2023/11/19 03:35:21;;;;;;;10.00;2.63;;;;;;;;;;5039754;28;20044;-69
2023/11/19 03:37:47;;;;;;;7.05;2.67;;;;;;;;;;5029687;28;20056;-69
2023/11/19 03:40:14;;;;;;;8.35;3.22;;;;;;;;;;5046130;28;20033;-71
2023/11/19 03:42:41;;;;;;;7.00;2.45;;;;;;;;;;5037701;28;20051;-68
2023/11/19 03:45:11;;;;;;;6.03;2.33;;;;;;;;;;5039132;28;20037;-69
2023/11/19 03:47:37;;;;;;;9.85;3.15;;;;;;;;;;5034765;28;20021;-68
2023/11/19 03:50:04;;;;;;;5.22;2.78;;;;;;;;;;5040604;28;20107;-68
2023/11/19 03:52:30;;;;;;;7.07;2.72;;;;;;;;;;5041182;28;20087;-68
2023/11/19 03:54:57;;;;;;;11.32;2.58;;;;;;;;;;5040393;28;20060;-71
2023/11/19 03:57:24;;;;;;;13.30;2.90;;;;;;;;;;5014228;28;20428;-69
2023/11/19 03:59:55;;;;;;;8.43;2.83;;;;;;;;;;5035187;28;20398;-68
2023/11/19 04:02:22;;;;;;;4.90;2.47;;;;;;;;;;5039382;28;20470;-70
2023/11/19 04:04:48;;;;;;;13.07;2.65;;;;;;;;;;5037995;28;20059;-67
2023/11/19 04:07:15;;;;;;;4.55;2.60;;;;;;;;;;5021802;28;20411;-70
2023/11/19 04:09:41;;;;;;;7.53;2.20;;;;;;;;;;5038327;28;20628;-68
2023/11/19 04:12:08;;;;;;;6.75;2.38;;;;;;;;;;5045470;28;20081;-70
2023/11/19 04:14:34;;;;;;;8.13;2.90;;;;;;;;;;5035664;28;20043;-70
2023/11/19 04:17:01;;;;;;;6.32;2.03;;;;;;;;;;5043327;28;20021;-68
2023/11/19 04:19:27;;;;;;;9.82;2.63;;;;;;;;;;5041031;28;20025;-70
2023/11/19 04:21:54;;;;;;;8.38;2.08;;;;;;;;;;5019244;28;20199;-69
2023/11/19 04:24:20;;;;;;;5.05;2.92;;;;;;;;;;5019125;28;20033;-69
2023/11/19 04:26:46;;;;;;;6.68;2.17;;;;;;;;;;5033853;28;20064;-69
2023/11/19 04:29:13;;;;;;;8.73;2.80;;;;;;;;;;5035197;28;20414;-70
2023/11/19 04:31:39;;;;;;;5.80;2.40;;;;;;;;;;5020683;28;20063;-70
2023/11/19 04:34:06;;;;;;;9.45;2.28;;;;;;;;;;5013968;28;20033;-70
2023/11/19 04:36:33;;;;;;;8.30;3.08;;;;;;;;;;5037537;28;20550;-70
2023/11/19 04:38:59;;;;;;;7.82;2.42;;;;;;;;;;5038390;28;20028;-69
2023/11/19 04:41:28;;;;;;;6.63;2.90;;;;;;;;;;5038012;28;20498;-69
2023/11/19 04:43:54;;;;;;;5.55;2.35;;;;;;;;;;5021831;28;20490;-70
2023/11/19 04:46:20;;;;;;;12.07;2.75;;;;;;;;;;5038632;28;20036;-70
2023/11/19 04:48:46;;;;;;;9.10;2.28;;;;;;;;;;5037751;28;20497;-69
2023/11/19 04:51:12;;;;;;;11.25;2.42;;;;;;;;;;5030726;28;20029;-70
2023/11/19 04:53:38;;;;;;;7.45;2.47;;;;;;;;;;5037536;28;20532;-70
2023/11/19 04:56:11;;;;;;;8.55;2.78;;;;;;;;;;5036819;28;20123;-69
2023/11/19 04:58:38;;;;;;;7.72;2.42;;;;;;;;;;5035295;28;20021;-70
2023/11/19 05:01:04;;;;;;;9.90;2.38;;;;;;;;;;5034081;28;20037;-69
2023/11/19 05:03:34;;;;;;;5.35;2.17;;;;;;;;;;5029583;28;20056;-71
2023/11/19 05:06:00;;;;;;;3.67;2.25;;;;;;;;;;5013192;28;20033;-73
2023/11/19 05:08:26;;;;;;;6.57;2.63;;;;;;;;;;5012340;28;20116;-70
2023/11/19 05:10:52;;;;;;;6.63;2.50;;;;;;;;;;5016007;28;20546;-70
2023/11/19 05:13:18;;;;;;;5.72;1.92;;;;;;;;;;5013493;28;20030;-71
2023/11/19 05:15:44;;;;;;;6.85;2.50;;;;;;;;;;5030366;28;20025;-71
2023/11/19 05:18:10;;;;;;;7.22;2.40;;;;;;;;;;5018516;28;20072;-71
2023/11/19 05:20:36;;;;;;;6.38;2.33;;;;;;;;;;5032797;28;20050;-70
2023/11/19 05:23:03;;;;;;;8.13;2.20;;;;;;;;;;5017052;28;20030;-71
2023/11/19 05:25:29;;;;;;;11.65;2.40;;;;;;;;;;5013988;28;20129;-70
2023/11/19 05:27:56;;;;;;;6.97;2.47;;;;;;;;;;5017556;28;20026;-71
2023/11/19 05:30:22;;;;;;;4.13;1.75;;;;;;;;;;5012061;28;20026;-71
2023/11/19 05:32:48;;;;;;;6.65;2.33;;;;;;;;;;5014062;28;20036;-72
2023/11/19 05:35:15;;;;;;;4.60;1.98;;;;;;;;;;5018709;28;20035;-71
2023/11/19 05:37:41;;;;;;;8.48;2.58;;;;;;;;;;5013610;28;20902;-69
2023/11/19 05:40:14;;;;;;;7.97;2.22;;;;;;;;;;5011242;28;20499;-70
2023/11/19 05:42:41;;;;;;;3.95;2.42;;;;;;;;;;5013941;28;20452;-70
2023/11/19 05:45:07;;;;;;;8.50;2.20;;;;;;;;;;5011924;28;20500;-70
2023/11/19 05:47:34;;;;;;;3.38;1.75;;;;;;;;;;5010611;28;20504;-73
2023/11/19 05:50:00;;;;;;;6.20;1.95;;;;;;;;;;5032627;28;21121;-69
2023/11/19 05:52:28;;;;;;;5.35;2.22;;;;;;;;;;5012847;28;20026;-69
2023/11/19 05:54:54;;;;;;;8.05;2.33;;;;;;;;;;5014494;28;20035;-68
2023/11/19 05:57:23;;;;;;;5.28;2.75;;;;;;;;;;5010648;28;20187;-69
2023/11/19 05:59:50;;;;;;;6.93;2.10;;;;;;;;;;5013297;28;20029;-69
2023/11/19 06:02:16;;;;;;;2.75;1.90;;;;;;;;;;5012483;28;20029;-69
2023/11/19 06:04:44;;;;;;;6.38;2.00;;;;;;;;;;5029049;28;20506;-68
2023/11/19 06:07:10;;;;;;;2.65;2.25;;;;;;;;;;5034290;28;20040;-68
2023/11/19 06:09:36;;;;;;;3.13;1.80;;;;;;;;;;5030953;28;20025;-70
2023/11/19 06:12:03;;;;;;;6.75;2.25;;;;;;;;;;5044639;28;20033;-68
2023/11/19 06:14:29;;;;;;;3.88;1.85;;;;;;;;;;5033585;28;20112;-67
2023/11/19 06:16:56;;;;;;;6.13;2.08;;;;;;;;;;5036312;28;20095;-69
2023/11/19 06:19:24;;;;;;;6.28;2.22;;;;;;;;;;5037338;28;20132;-69
2023/11/19 06:21:50;;;;;;;6.40;2.20;;;;;;;;;;5037905;28;20017;-68
2023/11/19 06:24:17;;;;;;;6.63;2.33;;;;;;;;;;5041517;28;20028;-69
2023/11/19 06:26:43;;;;;;;3.38;1.90;;;;;;;;;;5036523;28;20034;-69
2023/11/19 06:29:09;;;;;;;5.20;1.80;;;;;;;;;;5036320;28;20512;-69
2023/11/19 06:31:35;;;;;;;5.75;1.98;;;;;;;;;;5022706;28;20505;-67
2023/11/19 06:34:01;;;;;;;5.00;2.20;;;;;;;;;;5031779;28;20031;-70
2023/11/19 06:36:27;;;;;;;7.20;2.22;;;;;;;;;;5032034;28;20067;-73
2023/11/19 06:38:53;;;;;;;9.13;2.25;;;;;;;;;;5037470;28;20116;-69
2023/11/19 06:41:20;;;;;;;6.00;2.03;;;;;;;;;;5037996;28;20387;-70
2023/11/19 06:43:46;;;;;;;8.23;2.13;;;;;;;;;;5015119;28;20036;-69
2023/11/19 06:46:15;;;;;;;5.53;2.00;;;;;;;;;;5033397;28;20036;-69
2023/11/19 06:48:43;;;;;;;6.40;2.47;;;;;;;;;;5034152;28;20571;-70
2023/11/19 06:51:09;;;;;;;4.85;1.60;;;;;;;;;;5037322;28;20797;-69
2023/11/19 06:53:36;;;;;;;4.47;1.83;;;;;;;;;;5043176;28;20062;-68
2023/11/19 06:56:06;;;;;;;7.60;2.28;;;;;;;;;;5040350;28;20475;-69
2023/11/19 06:58:34;;;;;;;5.88;1.80;;;;;;;;;;5025825;28;20025;-69
2023/11/19 07:01:00;;;;;;;6.65;2.35;;;;;;;;;;5036234;28;20163;-68
2023/11/19 07:03:27;;;;;;;4.20;1.98;;;;;;;;;;5032547;28;20529;-69
2023/11/19 07:05:53;;;;;;;5.13;3.15;;;;;;;;;;5034722;28;20482;-68
2023/11/19 07:08:20;;;;;;;4.70;2.13;;;;;;;;;;5038107;28;20025;-71
2023/11/19 07:10:47;;;;;;;9.07;2.75;;;;;;;;;;5040197;28;20052;-68
2023/11/19 07:13:16;;;;;;;8.27;2.95;;;;;;;;;;5021199;28;20029;-71
2023/11/19 07:15:43;;;;;;;11.98;2.75;;;;;;;;;;5020137;28;20518;-68
2023/11/19 07:18:09;;;;;;;3.75;1.75;;;;;;;;;;5035874;28;20046;-67
2023/11/19 07:20:35;;;;;;;4.22;2.05;;;;;;;;;;5024733;28;20163;-69
2023/11/19 07:23:01;;;;;;;7.28;2.25;;;;;;;;;;5035982;28;20508;-69
2023/11/19 07:25:27;;;;;;;2.22;1.67;;;;;;;;;;5032945;28;20399;-67
2023/11/19 07:27:53;;;;;;;4.25;2.13;;;;;;;;;;5036134;28;20431;-72
2023/11/19 07:30:19;;;;;;;4.05;2.17;;;;;;;;;;5034078;28;20334;-69
2023/11/19 07:32:45;;;;;;;6.35;2.47;;;;;;;;;;5034119;28;20025;-71
2023/11/19 07:35:12;;;;;;;7.63;2.25;;;;;;;;;;5032466;28;20028;-68
2023/11/19 07:37:39;;;;;;;3.22;1.70;;;;;;;;;;5027922;28;20028;-69
2023/11/19 07:40:05;;;;;;;3.22;1.52;;;;;;;;;;5037609;28;20367;-68
2023/11/19 07:42:31;;;;;;;3.70;1.35;;;;;;;;;;5034209;28;20079;-69
2023/11/19 07:44:57;;;;;;;3.95;1.50;;;;;;;;;;5036472;28;20037;-69
2023/11/19 07:47:23;;;;;;;4.25;2.05;;;;;;;;;;5032072;28;20067;-69
2023/11/19 07:49:51;;;;;;;1.88;1.65;;;;;;;;;;5038622;28;20035;-69
2023/11/19 07:52:17;;;;;;;4.63;1.60;;;;;;;;;;5035517;28;20029;-69
2023/11/19 07:54:43;;;;;;;2.25;1.52;;;;;;;;;;5037055;28;20029;-68
2023/11/19 07:57:09;;;;;;;3.75;2.03;;;;;;;;;;5032225;28;20414;-68
2023/11/19 07:59:36;;;;;;;2.05;1.30;;;;;;;;;;5032258;28;20174;-70
2023/11/19 08:02:03;;;;;;;5.07;1.48;;;;;;;;;;5028440;28;20029;-68
2023/11/19 08:04:29;;;;;;;4.93;2.15;;;;;;;;;;5040193;28;20533;-70
2023/11/19 08:06:56;;;;;;;2.13;1.48;;;;;;;;;;5034177;28;20029;-68
2023/11/19 08:09:23;;;;;;;2.22;1.30;;;;;;;;;;5015963;28;20033;-69
2023/11/19 08:11:49;;;;;;;1.90;1.30;;;;;;;;;;5033921;28;20044;-69
2023/11/19 08:14:15;;;;;;;1.27;1.20;;;;;;;;;;5035849;28;20704;-72
2023/11/19 08:16:42;;;;;;;3.55;1.55;;;;;;;;;;5030735;28;20029;-70
2023/11/19 08:19:08;;;;;;;2.65;1.30;;;;;;;;;;5015565;28;20037;-69
2023/11/19 08:21:34;;;;;;;3.78;1.63;;;;;;;;;;5036909;28;20074;-70
2023/11/19 08:24:00;;;;;;;2.42;1.30;;;;;;;;;;5037052;28;20116;-73
2023/11/19 08:26:26;;;;;;;1.48;1.27;;;;;;;;;;5037765;28;20278;-69
2023/11/19 08:28:53;;;;;;;3.05;1.70;;;;;;;;;;5036538;28;20475;-68
2023/11/19 08:31:19;;;;;;;3.55;1.55;;;;;;;;;;5035895;28;20029;-69
2023/11/19 08:33:45;;;;;;;1.98;1.08;;;;;;;;;;5033839;28;20056;-70
2023/11/19 08:36:16;;;;;;;1.55;1.33;;;;;;;;;;5005749;28;20520;-67
2023/11/19 08:38:43;;;;;;;4.85;1.85;;;;;;;;;;5033236;28;20446;-69
2023/11/19 08:41:10;;;;;;;6.20;2.22;;;;;;;;;;5033744;28;20599;-69
2023/11/19 08:43:36;;;;;;;1.65;1.40;;;;;;;;;;5035197;28;20078;-70
2023/11/19 08:46:02;;;;;;;1.40;1.30;;;;;;;;;;5031344;28;20108;-69
2023/11/19 08:48:28;;;;;;;1.10;1.00;;;;;;;;;;5033308;28;20094;-68
2023/11/19 08:50:54;;;;;;;3.10;1.52;;;;;;;;;;5034967;28;20033;-68
2023/11/19 08:53:20;;;;;;;1.35;1.20;;;;;;;;;;5035927;28;20044;-69
2023/11/19 08:55:47;;;;;;;1.35;1.25;;;;;;;;;;5036025;28;20486;-68
2023/11/19 08:58:13;;;;;;;1.20;1.20;;;;;;;;;;5034931;28;20033;-67
2023/11/19 09:00:40;;;;;;;1.17;1.17;;;;;;;;;;5036932;28;20782;-68
2023/11/19 09:03:06;;;;;;;1.15;1.15;;;;;;;;;;5033156;28;20497;-68
2023/11/19 09:05:32;;;;;;;1.30;1.30;;;;;;;;;;5033854;28;20599;-68
2023/11/19 09:07:58;;;;;;;1.10;1.10;;;;;;;;;;5033828;28;20037;-68
2023/11/19 09:10:24;;;;;;;1.52;1.42;;;;;;;;;;5013482;28;20346;-67
2023/11/19 09:12:50;;;;;;;2.10;1.48;;;;;;;;;;5032540;28;20457;-69
2023/11/19 09:15:16;;;;;;;1.20;1.20;;;;;;;;;;5031898;28;20029;-66
2023/11/19 09:17:43;;;;;;;1.58;1.40;;;;;;;;;;5033986;28;20473;-67
2023/11/19 09:20:12;;;;;;;1.48;1.40;;;;;;;;;;5031798;28;20064;-66
2023/11/19 09:22:38;;;;;;;1.85;1.75;;;;;;;;;;5016729;28;20067;-67
2023/11/19 09:25:05;;;;;;;1.65;1.20;;;;;;;;;;5021689;28;20070;-66
2023/11/19 09:27:31;;;;;;;1.55;1.30;;;;;;;;;;5032171;28;20075;-67
2023/11/19 09:29:57;;;;;;;2.60;1.25;;;;;;;;;;5040860;28;20387;-67
2023/11/19 09:32:23;;;;;;;1.30;1.30;;;;;;;;;;5033203;28;20537;-67
2023/11/19 09:34:49;;;;;;;1.50;1.40;;;;;;;;;;5032846;28;20124;-66
2023/11/19 09:37:16;;;;;;;1.10;1.10;;;;;;;;;;5040409;28;20029;-69
2023/11/19 09:39:45;;;;;;;1.30;1.20;;;;;;;;;;5038124;28;20074;-66
2023/11/19 09:42:12;;;;;;;1.30;1.17;;;;;;;;;;5019110;28;20141;-65
2023/11/19 09:44:39;;;;;;;1.33;1.30;;;;;;;;;;5028056;28;20747;-65
2023/11/19 09:47:06;;;;;;;1.70;1.60;;;;;;;;;;5037190;28;20025;-65
2023/11/19 09:49:33;;;;;;;1.40;1.20;;;;;;;;;;5027774;28;20499;-65
2023/11/19 09:51:59;;;;;;;2.15;1.30;;;;;;;;;;5038860;28;20045;-65
2023/11/19 09:54:25;;;;;;;1.88;1.63;;;;;;;;;;5048007;28;20466;-65
2023/11/19 09:56:51;;;;;;;1.40;1.30;;;;;;;;;;5015806;28;20367;-65
2023/11/19 09:59:18;;;;;;;2.40;1.50;;;;;;;;;;5035659;28;20029;-65
2023/11/19 10:01:46;;;;;;;2.60;1.48;;;;;;;;;;5023210;28;20130;-65
2023/11/19 10:04:16;;;;;;;1.95;1.35;;;;;;;;;;5028851;28;20378;-66
2023/11/19 10:06:43;;;;;;;1.40;1.30;;;;;;;;;;5036324;28;20590;-66
2023/11/19 10:09:09;;;;;;;1.63;1.50;;;;;;;;;;5027738;28;20087;-66
2023/11/19 10:11:35;;;;;;;1.58;1.30;;;;;;;;;;5048145;28;20032;-66
2023/11/19 10:14:01;;;;;;;3.38;1.60;;;;;;;;;;5044740;28;20315;-66
2023/11/19 10:16:31;;;;;;;4.15;1.40;;;;;;;;;;5033516;28;20032;-67
2023/11/19 10:18:57;;;;;;;3.00;1.42;;;;;;;;;;5038665;28;20108;-66
2023/11/19 10:21:23;;;;;;;2.58;1.52;;;;;;;;;;5037660;28;20033;-67
2023/11/19 10:23:51;;;;;;;2.58;1.33;;;;;;;;;;5044756;28;20025;-67
2023/11/19 10:26:17;;;;;;;3.05;1.67;;;;;;;;;;5042117;28;20351;-66
2023/11/19 10:28:45;;;;;;;5.15;1.77;;;;;;;;;;5041471;28;20033;-67
2023/11/19 10:31:13;;;;;;;3.60;1.60;;;;;;;;;;5031926;28;20033;-67
2023/11/19 10:33:39;;;;;;;1.40;1.33;;;;;;;;;;5038391;28;20064;-67
2023/11/19 10:36:06;;;;;;;1.65;1.52;;;;;;;;;;5020992;28;20040;-70
2023/11/19 10:38:32;;;;;;;3.75;1.42;;;;;;;;;;5022070;28;20307;-70
2023/11/19 10:40:59;;;;;;;1.60;1.50;;;;;;;;;;5039011;28;20510;-66
2023/11/19 10:43:25;;;;;;;1.23;1.23;;;;;;;;;;5029144;28;20101;-69
2023/11/19 10:45:52;;;;;;;1.38;1.30;;;;;;;;;;5041682;28;20021;-67
2023/11/19 10:48:18;;;;;;;2.33;1.50;;;;;;;;;;5037124;28;20032;-67
2023/11/19 10:50:45;;;;;;;1.20;1.20;;;;;;;;;;5035088;28;20037;-67
2023/11/19 10:53:21;;;;;;;1.40;1.30;;;;;;;;;;5034109;28;20387;-68
2023/11/19 10:55:48;;;;;;;1.10;1.10;;;;;;;;;;5033146;28;20029;-67
2023/11/19 10:58:19;;;;;;;1.20;1.10;;;;;;;;;;5040488;28;20036;-68
2023/11/19 11:00:47;;;;;;;1.75;1.63;;;;;;;;;;5034092;28;20029;-68
2023/11/19 11:03:20;;;;;;;1.50;1.40;;;;;;;;;;5035841;28;20029;-68
2023/11/19 11:05:50;;;;;;;2.40;1.50;;;;;;;;;;5040384;28;20126;-70
2023/11/19 11:08:19;;;;;;;1.20;1.20;;;;;;;;;;5038550;28;20033;-69
2023/11/19 11:10:47;;;;;;;1.70;1.60;;;;;;;;;;5018537;28;20029;-67
2023/11/19 11:13:14;;;;;;;1.77;1.40;;;;;;;;;;5030982;28;20094;-66
2023/11/19 11:15:42;;;;;;;1.67;1.40;;;;;;;;;;5042628;28;20033;-67
2023/11/19 11:18:09;;;;;;;3.92;1.83;;;;;;;;;;5036229;28;20036;-66
2023/11/19 11:20:35;;;;;;;3.33;1.80;;;;;;;;;;5042689;28;20017;-67
2023/11/19 11:23:08;;;;;;;3.13;1.70;;;;;;;;;;5049908;28;20447;-67
2023/11/19 11:25:43;;;;;;;2.42;1.73;;;;;;;;;;5033064;28;20025;-67
2023/11/19 11:28:09;;;;;;;;;;;;;;;;;;5034554;28;20271;-67
2023/11/19 11:30:40;;;;;;;3.00;1.92;;;;;;;;;;5037175;28;19920;-68
2023/11/19 11:33:12;;;;;;;2.55;1.70;;;;;;;;;;5032627;28;20075;-67
2023/11/19 11:35:55;;;;;;;1.75;1.63;;;;;;;;;;5038637;28;20542;-66
2023/11/19 11:38:23;;;;;;;2.15;1.58;;;;;;;;;;5034985;28;20017;-67
2023/11/19 11:41:08;;;;;;;5.50;2.38;;;;;;;;;;5031607;28;20092;-68
2023/11/19 11:43:46;;;;;;;3.70;2.20;;;;;;;;;;5042989;28;20063;-67
2023/11/19 11:46:36;;;;;;;4.03;1.63;;;;;;;;;;5013783;28;20891;-67
2023/11/19 11:49:06;;;;;;;3.38;1.50;;;;;;;;;;5008950;28;20044;-68
2023/11/19 11:51:50;;;;;;;2.22;1.52;;;;;;;;;;5032187;28;20025;-68
2023/11/19 11:54:22;;;;;;;2.85;1.63;;;;;;;;;;5046499;28;20056;-67
2023/11/19 11:57:07;;;;;;;5.10;2.30;;;;;;;;;;5040139;28;20026;-66
2023/11/19 11:59:45;;;;;;;1.58;1.48;;;;;;;;;;5039709;28;20434;-67
2023/11/19 12:02:12;;;;;;;1.92;1.45;;;;;;;;;;5016557;28;20032;-66
2023/11/19 12:04:38;;;;;;;1.75;1.50;;;;;;;;;;5039792;28;20046;-66
2023/11/19 12:07:05;;;;;;;2.38;1.80;;;;;;;;;;5039414;28;20090;-72
2023/11/19 12:09:32;;;;;;;3.63;1.70;;;;;;;;;;5014667;28;20037;-66
2023/11/19 12:12:17;;;;;;;2.92;2.13;;;;;;;;;;5040760;28;20025;-67
2023/11/19 12:15:02;;;;;;;3.00;1.90;;;;;;;;;;5033808;28;20029;-66
2023/11/19 12:17:34;;;;;;;1.42;1.33;;;;;;;;;;5036421;28;20264;-66
2023/11/19 12:20:11;;;;;;;1.95;1.75;;;;;;;;;;5036200;28;20668;-66
2023/11/19 12:22:41;;;;;;;2.38;1.40;;;;;;;;;;5040155;28;20036;-66
2023/11/19 12:25:16;;;;;;;5.13;1.73;;;;;;;;;;5034887;28;20127;-67
2023/11/19 12:27:42;;;;;;;;;;;;;;;;;;5024743;28;20112;-67
2023/11/19 12:30:09;;;;;;;1.90;1.80;;;;;;;;;;5040054;28;19919;-67
2023/11/19 12:32:54;;;;;;;2.95;1.90;;;;;;;;;;5039582;28;20056;-66
2023/11/19 12:35:20;;;;;;;4.45;2.10;;;;;;;;;;5017186;28;20040;-66
2023/11/19 12:37:47;;;;;;;5.05;1.92;;;;;;;;;;5026236;28;20037;-68
2023/11/19 12:40:14;;;;;;;2.28;2.00;;;;;;;;;;5039847;28;20056;-69
2023/11/19 12:42:41;;;;;;;3.00;1.83;;;;;;;;;;5024225;28;20032;-67
2023/11/19 12:45:11;;;;;;;2.85;1.60;;;;;;;;;;5040197;28;20037;-68
2023/11/19 12:47:38;;;;;;;3.80;2.00;;;;;;;;;;5018400;28;20083;-67
2023/11/19 12:50:04;;;;;;;2.38;1.60;;;;;;;;;;5025780;28;20072;-68
2023/11/19 12:52:31;;;;;;;3.45;1.60;;;;;;;;;;5040048;28;20029;-67
2023/11/19 12:54:58;;;;;;;6.15;2.00;;;;;;;;;;5039884;28;20425;-67
2023/11/19 12:57:44;;;;;;;3.10;1.75;;;;;;;;;;5022290;28;20020;-66
2023/11/19 13:00:23;;;;;;;5.65;1.75;;;;;;;;;;5037356;28;20025;-66
2023/11/19 13:02:50;;;;;;;3.22;2.22;;;;;;;;;;5042819;28;20020;-66
2023/11/19 13:05:22;;;;;;;7.20;3.00;;;;;;;;;;5028492;28;20526;-65
2023/11/19 13:07:48;;;;;;;6.70;3.53;;;;;;;;;;5034165;28;20132;-68
2023/11/19 13:10:15;;;;;;;12.95;4.18;;;;;;;;;;5034607;28;20029;-66
2023/11/19 13:12:41;;;;;;;14.40;3.67;;;;;;;;;;5022756;28;20041;-67
2023/11/19 13:15:25;;;;;;;11.80;3.72;;;;;;;;;;5027266;28;20226;-65
2023/11/19 13:17:51;;;;;;;7.70;3.03;;;;;;;;;;5036547;28;20037;-67
2023/11/19 13:20:17;;;;;;;13.80;3.55;;;;;;;;;;5031095;28;20032;-67
2023/11/19 13:22:56;;;;;;;10.68;3.60;;;;;;;;;;5033896;28;20020;-68
2023/11/19 13:25:23;;;;;;;9.27;3.25;;;;;;;;;;5032402;28;20206;-68
2023/11/19 13:27:49;;;;;;;9.02;2.85;;;;;;;;;;5035873;28;20040;-68
2023/11/19 13:30:16;;;;;;;12.75;6.07;;;;;;;;;;5035030;28;20086;-68
2023/11/19 13:32:44;;;;;;;9.27;3.67;;;;;;;;;;5024804;28;20037;-68
2023/11/19 13:35:10;;;;;;;14.85;4.20;;;;;;;;;;5036518;28;20032;-68
2023/11/19 13:37:36;;;;;;;9.85;3.60;;;;;;;;;;5037266;28;20033;-69
2023/11/19 13:40:03;;;;;;;10.95;3.03;;;;;;;;;;5035019;28;20104;-69
2023/11/19 13:42:29;;;;;;;10.73;3.72;;;;;;;;;;5033181;28;20040;-69
2023/11/19 13:44:56;;;;;;;14.10;3.95;;;;;;;;;;5039682;28;20486;-70
2023/11/19 13:47:23;;;;;;;11.75;3.35;;;;;;;;;;5037116;28;20032;-69
2023/11/19 13:49:50;;;;;;;7.65;2.80;;;;;;;;;;5023413;28;20498;-69
2023/11/19 13:52:16;;;;;;;13.05;3.60;;;;;;;;;;5036777;28;20039;-72
2023/11/19 13:54:42;;;;;;;5.97;3.30;;;;;;;;;;5036398;28;20494;-68
2023/11/19 13:57:08;;;;;;;15.18;4.32;;;;;;;;;;5023968;28;20552;-69
2023/11/19 13:59:40;;;;;;;11.82;3.97;;;;;;;;;;5039006;28;20026;-69
2023/11/19 14:02:07;;;;;;;7.85;3.00;;;;;;;;;;5037577;28;20025;-68
2023/11/19 14:04:33;;;;;;;10.77;3.58;;;;;;;;;;5035695;28;20056;-68
2023/11/19 14:06:59;;;;;;;11.73;3.75;;;;;;;;;;5035237;28;20060;-67
2023/11/19 14:09:25;;;;;;;8.35;3.30;;;;;;;;;;5018783;28;20037;-68
2023/11/19 14:11:52;;;;;;;11.57;4.43;;;;;;;;;;5019977;28;20029;-68
2023/11/19 14:14:18;;;;;;;12.25;4.45;;;;;;;;;;5031567;28;20044;-70
2023/11/19 14:16:44;;;;;;;20.70;7.10;;;;;;;;;;5035168;28;20017;-70
2023/11/19 14:19:10;;;;;;;18.25;6.10;;;;;;;;;;5035521;28;20033;-71
2023/11/19 14:21:36;;;;;;;22.42;8.68;;;;;;;;;;5036292;28;20402;-71
2023/11/19 14:24:03;;;;;;;20.45;7.95;;;;;;;;;;5041618;28;20032;-70
2023/11/19 14:26:29;;;;;;;23.25;7.50;;;;;;;;;;5038009;28;20577;-70
2023/11/19 14:28:55;;;;;;;10.65;4.95;;;;;;;;;;5039489;28;20028;-71
2023/11/19 14:31:21;;;;;;;15.02;6.43;;;;;;;;;;5039093;28;20047;-70
2023/11/19 14:33:48;;;;;;;18.35;6.25;;;;;;;;;;5032829;28;20041;-70
2023/11/19 14:36:14;;;;;;;31.33;13.30;;;;;;;;;;5040514;28;20029;-71
2023/11/19 14:38:41;;;;;;;11.65;4.97;;;;;;;;;;5039867;28;20029;-70
2023/11/19 14:41:07;;;;;;;26.90;12.27;;;;;;;;;;5023255;28;20040;-70
2023/11/19 14:43:33;;;;;;;19.00;7.85;;;;;;;;;;5040440;28;20025;-71